Time;durP1;ratioP1;P1;durP2;ratioP2;P2;SDS_P1;SDS_P2;PMS_P1;PMS_P2;Temp;Humidity;BMP_temperature;BMP_pressure;BME280_temperature;BME280_humidity;BME280_pressure;Samples;Min_cycle;Max_cycle;Signal;HPM_P1;HPM_P2
2023/04/13 00:00:51;;;;;;;3.00;2.65;;;;;;;;;;5073825;28;20201;-68
2023/04/13 00:03:18;;;;;;;3.15;2.85;;;;;;;;;;5073369;28;20263;-68
2023/04/13 00:05:47;;;;;;;4.10;2.55;;;;;;;;;;5073582;28;20650;-68
2023/04/13 00:08:15;;;;;;;5.45;3.03;;;;;;;;;;5073573;28;20288;-68
2023/04/13 00:10:44;;;;;;;5.43;3.13;;;;;;;;;;5073400;28;20692;-68
2023/04/13 00:13:13;;;;;;;3.30;3.00;;;;;;;;;;5073377;28;20222;-68
2023/04/13 00:15:41;;;;;;;2.70;2.50;;;;;;;;;;5073538;28;20203;-68
2023/04/13 00:18:09;;;;;;;2.50;2.30;;;;;;;;;;5073388;28;20576;-68
2023/04/13 00:20:36;;;;;;;3.28;2.72;;;;;;;;;;5073197;28;20202;-68
2023/04/13 00:23:03;;;;;;;5.05;2.40;;;;;;;;;;5073297;28;20220;-67
2023/04/13 00:25:31;;;;;;;3.30;2.30;;;;;;;;;;5073644;28;20198;-68
2023/04/13 00:28:01;;;;;;;3.95;2.70;;;;;;;;;;5073310;28;20201;-68
2023/04/13 00:30:29;;;;;;;2.63;2.42;;;;;;;;;;5073355;28;20566;-68
2023/04/13 00:32:56;;;;;;;2.40;2.20;;;;;;;;;;5073241;28;20564;-68
2023/04/13 00:35:25;;;;;;;2.58;2.38;;;;;;;;;;5073577;28;20292;-68
2023/04/13 00:37:52;;;;;;;4.85;2.00;;;;;;;;;;5073291;28;20232;-68
2023/04/13 00:40:19;;;;;;;2.38;1.95;;;;;;;;;;5073005;28;20672;-68
2023/04/13 00:42:47;;;;;;;3.40;2.05;;;;;;;;;;5072794;28;20210;-68
2023/04/13 00:45:16;;;;;;;2.17;1.98;;;;;;;;;;5073246;28;20292;-68
2023/04/13 00:47:45;;;;;;;2.35;2.15;;;;;;;;;;5073139;28;20193;-68
2023/04/13 00:50:12;;;;;;;2.20;2.00;;;;;;;;;;5072911;28;20246;-68
2023/04/13 00:52:41;;;;;;;2.40;1.80;;;;;;;;;;5073039;28;20201;-68
2023/04/13 00:55:09;;;;;;;3.70;2.05;;;;;;;;;;5073652;28;20205;-68
2023/04/13 00:57:39;;;;;;;3.67;1.98;;;;;;;;;;5073016;28;20583;-68
2023/04/13 01:00:08;;;;;;;1.92;1.80;;;;;;;;;;5073160;28;20202;-68
2023/04/13 01:02:40;;;;;;;2.92;1.50;;;;;;;;;;5072746;28;20261;-69
2023/04/13 01:05:11;;;;;;;1.67;1.58;;;;;;;;;;5073625;28;20186;-68
2023/04/13 01:07:43;;;;;;;2.20;1.80;;;;;;;;;;5072642;28;20193;-68
2023/04/13 01:10:15;;;;;;;2.10;1.98;;;;;;;;;;5075401;28;20186;-68
2023/04/13 01:12:47;;;;;;;1.65;1.50;;;;;;;;;;5076723;28;20190;-68
2023/04/13 01:15:15;;;;;;;3.55;2.00;;;;;;;;;;5076432;28;20189;-68
2023/04/13 01:17:47;;;;;;;1.70;1.60;;;;;;;;;;5076208;28;20190;-68
2023/04/13 01:20:16;;;;;;;2.35;1.70;;;;;;;;;;5077100;28;20528;-68
2023/04/13 01:22:49;;;;;;;5.03;1.80;;;;;;;;;;5076662;28;20201;-68
2023/04/13 01:25:27;;;;;;;2.30;1.58;;;;;;;;;;5076481;28;20194;-68
2023/04/13 01:27:56;;;;;;;3.42;1.80;;;;;;;;;;5076585;28;20182;-68
2023/04/13 01:30:27;;;;;;;2.85;1.60;;;;;;;;;;5076441;28;20190;-68
2023/04/13 01:32:54;;;;;;;1.60;1.35;;;;;;;;;;5076405;28;20246;-68
2023/04/13 01:35:22;;;;;;;2.45;1.88;;;;;;;;;;5076000;28;20658;-68
2023/04/13 01:37:50;;;;;;;1.75;1.65;;;;;;;;;;5076167;28;20201;-68
2023/04/13 01:40:19;;;;;;;2.20;1.70;;;;;;;;;;5075986;28;20201;-68
2023/04/13 01:42:46;;;;;;;6.28;1.83;;;;;;;;;;5076188;28;20194;-68
2023/04/13 01:45:17;;;;;;;5.70;1.80;;;;;;;;;;5075869;28;20220;-68
2023/04/13 01:47:47;;;;;;;3.50;2.05;;;;;;;;;;5076283;28;20186;-68
2023/04/13 01:50:18;;;;;;;1.70;1.60;;;;;;;;;;5076152;28;20198;-68
2023/04/13 01:52:46;;;;;;;1.90;1.67;;;;;;;;;;5076715;28;20626;-68
2023/04/13 01:55:14;;;;;;;3.70;1.83;;;;;;;;;;5075643;28;20682;-68
2023/04/13 01:57:46;;;;;;;1.88;1.73;;;;;;;;;;5075552;28;20207;-68
2023/04/13 02:00:14;;;;;;;3.75;1.52;;;;;;;;;;5076123;28;20186;-68
2023/04/13 02:02:43;;;;;;;2.95;1.70;;;;;;;;;;5075207;28;20704;-68
2023/04/13 02:05:11;;;;;;;1.50;1.40;;;;;;;;;;5075903;28;20208;-67
2023/04/13 02:07:40;;;;;;;2.67;1.77;;;;;;;;;;5075778;28;20284;-68
2023/04/13 02:10:08;;;;;;;2.70;1.50;;;;;;;;;;5075691;28;20229;-68
2023/04/13 02:12:36;;;;;;;2.97;1.58;;;;;;;;;;5075757;28;20665;-68
2023/04/13 02:15:03;;;;;;;3.33;1.60;;;;;;;;;;5075265;28;20202;-70
2023/04/13 02:17:31;;;;;;;1.83;1.60;;;;;;;;;;5076420;28;20210;-68
2023/04/13 02:19:59;;;;;;;4.80;1.95;;;;;;;;;;5075476;28;20205;-68
2023/04/13 02:22:26;;;;;;;4.38;1.48;;;;;;;;;;5075364;28;20567;-68
2023/04/13 02:24:54;;;;;;;2.75;2.10;;;;;;;;;;5075005;28;20674;-68
2023/04/13 02:27:21;;;;;;;3.20;1.90;;;;;;;;;;5075421;28;20201;-68
2023/04/13 02:29:48;;;;;;;1.75;1.50;;;;;;;;;;5075572;28;20556;-67
2023/04/13 02:32:15;;;;;;;2.60;1.75;;;;;;;;;;5074831;28;20743;-68
2023/04/13 02:34:43;;;;;;;7.25;2.40;;;;;;;;;;5075568;28;20194;-68
2023/04/13 02:37:11;;;;;;;1.73;1.63;;;;;;;;;;5075550;28;20195;-68
2023/04/13 02:39:38;;;;;;;3.28;1.80;;;;;;;;;;5075003;28;20197;-68
2023/04/13 02:42:06;;;;;;;3.80;1.40;;;;;;;;;;5075112;28;20242;-68
2023/04/13 02:44:33;;;;;;;2.03;1.80;;;;;;;;;;5074874;28;20218;-69
2023/04/13 02:47:01;;;;;;;3.72;1.73;;;;;;;;;;5075418;28;20205;-68
2023/04/13 02:49:28;;;;;;;5.22;1.95;;;;;;;;;;5074917;28;20304;-68
2023/04/13 02:51:55;;;;;;;1.30;1.20;;;;;;;;;;5075483;28;20201;-68
2023/04/13 02:54:24;;;;;;;5.72;1.58;;;;;;;;;;5074794;28;20275;-68
2023/04/13 02:56:52;;;;;;;2.13;1.60;;;;;;;;;;5074918;28;20193;-68
2023/04/13 02:59:20;;;;;;;1.65;1.55;;;;;;;;;;5074358;28;20200;-68
2023/04/13 03:01:47;;;;;;;2.65;2.45;;;;;;;;;;5074371;28;20208;-68
2023/04/13 03:04:14;;;;;;;5.85;2.00;;;;;;;;;;5074100;28;20235;-68
2023/04/13 03:06:43;;;;;;;2.22;2.00;;;;;;;;;;5074544;28;20247;-68
2023/04/13 03:09:10;;;;;;;3.38;2.17;;;;;;;;;;5074513;28;20669;-68
2023/04/13 03:11:39;;;;;;;2.08;1.90;;;;;;;;;;5074026;28;20198;-68
2023/04/13 03:14:06;;;;;;;5.13;2.08;;;;;;;;;;5074670;28;20539;-68
2023/04/13 03:16:34;;;;;;;1.90;1.63;;;;;;;;;;5074440;28;20204;-68
2023/04/13 03:19:02;;;;;;;3.25;2.05;;;;;;;;;;5074292;28;20599;-68
2023/04/13 03:21:29;;;;;;;2.78;1.73;;;;;;;;;;5074014;28;20229;-68
2023/04/13 03:23:56;;;;;;;3.75;1.65;;;;;;;;;;5074338;28;20232;-68
2023/04/13 03:26:24;;;;;;;4.32;1.80;;;;;;;;;;5074699;28;20190;-68
2023/04/13 03:28:52;;;;;;;2.20;2.00;;;;;;;;;;5074289;28;20687;-68
2023/04/13 03:31:21;;;;;;;2.38;1.85;;;;;;;;;;5074385;28;20202;-66
2023/04/13 03:33:49;;;;;;;4.82;1.90;;;;;;;;;;5072647;28;20652;-69
2023/04/13 03:36:17;;;;;;;6.13;1.98;;;;;;;;;;5073635;28;20304;-68
2023/04/13 03:38:44;;;;;;;3.00;2.00;;;;;;;;;;5074007;28;20194;-67
2023/04/13 03:41:11;;;;;;;2.60;1.90;;;;;;;;;;5073930;28;20205;-68
2023/04/13 03:43:38;;;;;;;2.00;1.90;;;;;;;;;;5073832;28;20244;-67
2023/04/13 03:46:07;;;;;;;4.63;1.60;;;;;;;;;;5073870;28;20252;-68
2023/04/13 03:48:35;;;;;;;2.13;1.60;;;;;;;;;;5074111;28;20647;-68
2023/04/13 03:51:02;;;;;;;7.13;2.28;;;;;;;;;;5073775;28;20198;-68
2023/04/13 03:53:29;;;;;;;1.90;1.73;;;;;;;;;;5076588;28;20190;-68
2023/04/13 03:55:56;;;;;;;3.88;2.50;;;;;;;;;;5093753;28;20204;-68
2023/04/13 03:58:23;;;;;;;2.03;1.73;;;;;;;;;;5093619;28;20207;-67
2023/04/13 04:00:50;;;;;;;2.58;2.17;;;;;;;;;;5093834;28;20197;-68
2023/04/13 04:03:21;;;;;;;3.17;1.67;;;;;;;;;;5093925;28;20221;-68
2023/04/13 04:05:48;;;;;;;3.83;2.20;;;;;;;;;;5093418;28;20254;-68
2023/04/13 04:08:15;;;;;;;2.95;2.42;;;;;;;;;;5093807;28;20207;-68
2023/04/13 04:10:42;;;;;;;2.90;2.00;;;;;;;;;;5093346;28;20232;-68
2023/04/13 04:13:09;;;;;;;8.23;2.13;;;;;;;;;;5093427;28;20197;-68
2023/04/13 04:15:37;;;;;;;2.30;2.10;;;;;;;;;;5093604;28;20560;-68
2023/04/13 04:18:04;;;;;;;4.55;1.95;;;;;;;;;;5093664;28;20283;-68
2023/04/13 04:20:33;;;;;;;2.10;1.90;;;;;;;;;;5093907;28;20287;-67
2023/04/13 04:23:00;;;;;;;2.47;2.25;;;;;;;;;;5093708;28;20280;-67
2023/04/13 04:25:27;;;;;;;2.00;1.90;;;;;;;;;;5093309;28;20225;-68
2023/04/13 04:27:56;;;;;;;2.10;1.90;;;;;;;;;;5093272;28;20708;-72
2023/04/13 04:30:24;;;;;;;3.40;2.35;;;;;;;;;;5093444;28;20283;-79
2023/04/13 04:32:53;;;;;;;2.70;2.00;;;;;;;;;;5093921;28;20193;-68
2023/04/13 04:35:24;;;;;;;2.40;1.70;;;;;;;;;;5093166;28;20201;-68
2023/04/13 04:37:54;;;;;;;1.90;1.80;;;;;;;;;;5093573;28;20187;-67
2023/04/13 04:40:21;;;;;;;2.35;1.80;;;;;;;;;;5093553;28;20233;-67
2023/04/13 04:42:49;;;;;;;3.97;2.35;;;;;;;;;;5093527;28;20537;-67
2023/04/13 04:45:16;;;;;;;2.20;2.00;;;;;;;;;;5096154;28;20240;-68
2023/04/13 04:47:43;;;;;;;5.22;2.25;;;;;;;;;;5097223;28;20197;-68
2023/04/13 04:50:11;;;;;;;3.92;2.22;;;;;;;;;;5097518;28;20209;-68
2023/04/13 04:52:39;;;;;;;3.42;2.30;;;;;;;;;;5097143;28;20250;-67
2023/04/13 04:55:08;;;;;;;3.20;2.40;;;;;;;;;;5097573;28;20201;-68
2023/04/13 04:57:35;;;;;;;3.75;2.17;;;;;;;;;;5097338;28;20193;-67
2023/04/13 05:00:08;;;;;;;5.70;2.10;;;;;;;;;;5097498;28;20284;-68
2023/04/13 05:02:35;;;;;;;3.67;2.35;;;;;;;;;;5097416;28;20217;-68
2023/04/13 05:05:03;;;;;;;3.28;2.17;;;;;;;;;;5095366;28;20600;-68
2023/04/13 05:07:30;;;;;;;2.55;2.35;;;;;;;;;;5095620;28;20193;-68
2023/04/13 05:09:57;;;;;;;2.60;2.20;;;;;;;;;;5096259;28;20677;-67
2023/04/13 05:12:26;;;;;;;3.72;2.45;;;;;;;;;;5096825;28;20204;-67
2023/04/13 05:14:53;;;;;;;5.32;2.47;;;;;;;;;;5097233;28;20205;-68
2023/04/13 05:17:24;;;;;;;2.95;1.90;;;;;;;;;;5096913;28;20189;-67
2023/04/13 05:19:57;;;;;;;6.85;2.35;;;;;;;;;;5097297;28;20529;-67
2023/04/13 05:22:24;;;;;;;4.55;1.92;;;;;;;;;;5096561;28;20182;-67
2023/04/13 05:24:52;;;;;;;3.80;2.40;;;;;;;;;;5096411;28;20690;-67
2023/04/13 05:27:19;;;;;;;3.65;2.40;;;;;;;;;;5096684;28;20197;-67
2023/04/13 05:29:47;;;;;;;5.47;2.47;;;;;;;;;;5097224;28;20225;-68
2023/04/13 05:32:14;;;;;;;2.47;2.15;;;;;;;;;;5096734;28;20193;-68
2023/04/13 05:34:42;;;;;;;2.08;1.95;;;;;;;;;;5096277;28;20236;-67
2023/04/13 05:37:10;;;;;;;3.05;2.78;;;;;;;;;;5096519;28;20190;-67
2023/04/13 05:39:37;;;;;;;5.63;2.70;;;;;;;;;;5096582;28;20220;-68
2023/04/13 05:42:05;;;;;;;5.45;2.97;;;;;;;;;;5096496;28;20262;-68
2023/04/13 05:44:32;;;;;;;6.10;2.60;;;;;;;;;;5096110;28;20221;-68
2023/04/13 05:47:00;;;;;;;2.67;2.25;;;;;;;;;;5096929;28;20193;-68
2023/04/13 05:49:28;;;;;;;3.20;2.90;;;;;;;;;;5096354;28;20685;-68
2023/04/13 05:51:55;;;;;;;3.63;2.35;;;;;;;;;;5095848;28;20639;-67
2023/04/13 05:54:23;;;;;;;3.10;2.88;;;;;;;;;;5096042;28;20217;-67
2023/04/13 05:56:50;;;;;;;2.70;2.50;;;;;;;;;;5095074;28;20197;-67
2023/04/13 05:59:17;;;;;;;4.50;2.60;;;;;;;;;;5096124;28;20295;-67
2023/04/13 06:01:45;;;;;;;5.45;3.15;;;;;;;;;;5096332;28;20248;-67
2023/04/13 06:04:14;;;;;;;3.22;2.80;;;;;;;;;;5095879;28;20267;-67
2023/04/13 06:06:41;;;;;;;5.97;3.35;;;;;;;;;;5095987;28;20228;-67
2023/04/13 06:09:09;;;;;;;4.60;3.40;;;;;;;;;;5095710;28;20204;-67
2023/04/13 06:11:36;;;;;;;3.55;3.10;;;;;;;;;;5095948;28;20201;-67
2023/04/13 06:14:03;;;;;;;4.60;4.20;;;;;;;;;;5096022;28;20193;-67
2023/04/13 06:16:31;;;;;;;5.75;4.25;;;;;;;;;;5095821;28;20288;-67
2023/04/13 06:18:58;;;;;;;4.32;4.03;;;;;;;;;;5096035;28;20201;-67
2023/04/13 06:21:28;;;;;;;5.65;5.00;;;;;;;;;;5095549;28;20655;-69
2023/04/13 06:23:56;;;;;;;5.57;5.07;;;;;;;;;;5096070;28;20635;-67
2023/04/13 06:26:24;;;;;;;5.13;4.70;;;;;;;;;;5095753;28;20235;-67
2023/04/13 06:28:51;;;;;;;9.13;4.97;;;;;;;;;;5095622;28;20526;-67
2023/04/13 06:31:19;;;;;;;5.55;5.15;;;;;;;;;;5095642;28;20638;-67
2023/04/13 06:33:47;;;;;;;6.47;4.95;;;;;;;;;;5095618;28;20197;-67
2023/04/13 06:36:14;;;;;;;5.55;4.45;;;;;;;;;;5095435;28;20530;-67
2023/04/13 06:38:43;;;;;;;5.78;5.28;;;;;;;;;;5095126;28;20654;-67
2023/04/13 06:41:10;;;;;;;6.80;4.68;;;;;;;;;;5095328;28;20197;-67
2023/04/13 06:43:37;;;;;;;5.43;4.95;;;;;;;;;;5095289;28;20196;-67
2023/04/13 06:46:05;;;;;;;5.45;4.85;;;;;;;;;;5095696;28;20217;-67
2023/04/13 06:48:32;;;;;;;5.97;4.35;;;;;;;;;;5095188;28;20252;-67
2023/04/13 06:50:59;;;;;;;6.28;5.05;;;;;;;;;;5095216;28;20197;-67
2023/04/13 06:53:26;;;;;;;7.25;4.75;;;;;;;;;;5095082;28;20193;-67
2023/04/13 06:55:55;;;;;;;5.10;4.00;;;;;;;;;;5095463;28;20193;-67
2023/04/13 06:58:22;;;;;;;7.15;4.40;;;;;;;;;;5095052;28;20220;-67
2023/04/13 07:00:49;;;;;;;5.93;4.45;;;;;;;;;;5095179;28;20199;-67
2023/04/13 07:03:17;;;;;;;4.40;4.00;;;;;;;;;;5094860;28;20225;-67
2023/04/13 07:05:45;;;;;;;5.63;5.05;;;;;;;;;;5095019;28;20266;-67
2023/04/13 07:08:12;;;;;;;5.13;4.65;;;;;;;;;;5094763;28;20524;-67
2023/04/13 07:10:39;;;;;;;6.82;5.38;;;;;;;;;;5094785;28;20286;-67
2023/04/13 07:13:08;;;;;;;7.37;4.90;;;;;;;;;;5094775;28;20194;-67
2023/04/13 07:15:37;;;;;;;5.15;4.60;;;;;;;;;;5095753;28;20818;-67
2023/04/13 07:18:04;;;;;;;7.40;4.88;;;;;;;;;;5094616;28;20196;-67
2023/04/13 07:20:33;;;;;;;7.20;5.03;;;;;;;;;;5094941;28;20190;-67
2023/04/13 07:23:01;;;;;;;5.47;4.97;;;;;;;;;;5094195;28;20200;-67
2023/04/13 07:25:28;;;;;;;6.30;5.07;;;;;;;;;;5095005;28;20224;-67
2023/04/13 07:27:55;;;;;;;6.38;4.70;;;;;;;;;;5094457;28;20204;-67
2023/04/13 07:30:24;;;;;;;6.90;5.20;;;;;;;;;;5095065;28;20194;-67
2023/04/13 07:32:51;;;;;;;6.13;5.53;;;;;;;;;;5093882;28;20197;-67
2023/04/13 07:35:18;;;;;;;7.13;4.70;;;;;;;;;;5094568;28;20291;-67
2023/04/13 07:37:48;;;;;;;4.63;3.83;;;;;;;;;;5094381;28;20443;-67
2023/04/13 07:40:15;;;;;;;5.43;4.77;;;;;;;;;;5094461;28;20436;-67
2023/04/13 07:42:44;;;;;;;4.73;4.20;;;;;;;;;;5093803;28;20443;-67
2023/04/13 07:45:11;;;;;;;4.55;4.15;;;;;;;;;;5094416;28;20482;-67
2023/04/13 07:47:40;;;;;;;5.83;3.90;;;;;;;;;;5093956;28;20197;-67
2023/04/13 07:50:08;;;;;;;7.47;4.17;;;;;;;;;;5094238;28;20447;-67
2023/04/13 07:52:35;;;;;;;5.90;4.40;;;;;;;;;;5093679;28;20932;-67
2023/04/13 07:55:03;;;;;;;4.95;4.10;;;;;;;;;;5094019;28;20819;-67
2023/04/13 07:57:30;;;;;;;6.03;4.13;;;;;;;;;;5093602;28;20696;-67
2023/04/13 07:59:57;;;;;;;7.33;3.70;;;;;;;;;;5093934;28;20448;-67
2023/04/13 08:02:25;;;;;;;7.27;3.83;;;;;;;;;;5092894;28;20454;-68
2023/04/13 08:04:53;;;;;;;3.83;3.43;;;;;;;;;;5094692;28;20477;-67
2023/04/13 08:07:21;;;;;;;6.63;3.60;;;;;;;;;;5094082;28;20483;-67
2023/04/13 08:09:51;;;;;;;5.53;4.13;;;;;;;;;;5093726;28;20453;-68
2023/04/13 08:12:18;;;;;;;8.00;3.83;;;;;;;;;;5093419;28;20561;-68
2023/04/13 08:14:45;;;;;;;4.63;3.13;;;;;;;;;;5093569;28;20444;-68
2023/04/13 08:17:12;;;;;;;5.90;4.10;;;;;;;;;;5093431;28;20439;-67
2023/04/13 08:19:39;;;;;;;5.53;4.03;;;;;;;;;;5092693;28;20193;-67
2023/04/13 08:22:10;;;;;;;5.00;3.53;;;;;;;;;;5093324;28;20444;-67
2023/04/13 08:24:37;;;;;;;4.67;3.70;;;;;;;;;;5093697;28;20431;-67
2023/04/13 08:27:06;;;;;;;9.90;4.30;;;;;;;;;;5093110;28;21041;-67
2023/04/13 08:29:34;;;;;;;5.30;3.97;;;;;;;;;;5093463;28;20435;-67
2023/04/13 08:32:01;;;;;;;5.13;3.80;;;;;;;;;;5093954;28;20432;-67
2023/04/13 08:34:28;;;;;;;6.30;3.60;;;;;;;;;;5093779;28;20450;-67
2023/04/13 08:36:56;;;;;;;5.47;3.73;;;;;;;;;;5093093;28;20197;-68
2023/04/13 08:39:24;;;;;;;5.57;4.43;;;;;;;;;;5093415;28;20955;-68
2023/04/13 08:41:52;;;;;;;6.10;4.00;;;;;;;;;;5093397;28;20480;-68
2023/04/13 08:44:19;;;;;;;4.43;3.70;;;;;;;;;;5092988;28;20447;-68
2023/04/13 08:46:46;;;;;;;4.30;3.70;;;;;;;;;;5093328;28;20474;-68
2023/04/13 08:49:14;;;;;;;3.93;3.47;;;;;;;;;;5093498;28;20530;-68
2023/04/13 08:51:44;;;;;;;3.83;3.53;;;;;;;;;;5093013;28;20497;-68
2023/04/13 08:54:14;;;;;;;7.60;4.90;;;;;;;;;;5093886;28;20468;-68
2023/04/13 08:56:45;;;;;;;11.70;4.20;;;;;;;;;;5093729;28;20475;-67
2023/04/13 08:59:14;;;;;;;4.87;3.40;;;;;;;;;;5093128;28;20182;-67
2023/04/13 09:01:42;;;;;;;4.03;3.43;;;;;;;;;;5093157;28;20508;-68
2023/04/13 09:04:10;;;;;;;4.75;4.32;;;;;;;;;;5093106;28;20483;-68
2023/04/13 09:06:38;;;;;;;4.18;3.88;;;;;;;;;;5093491;28;20773;-67
2023/04/13 09:09:07;;;;;;;4.30;3.87;;;;;;;;;;5092807;28;20666;-67
2023/04/13 09:11:34;;;;;;;3.42;3.22;;;;;;;;;;5093071;28;20828;-67
2023/04/13 09:14:03;;;;;;;4.27;3.87;;;;;;;;;;5093065;28;20581;-67
2023/04/13 09:16:30;;;;;;;5.33;4.00;;;;;;;;;;5093022;28;20447;-66
2023/04/13 09:18:58;;;;;;;4.47;4.00;;;;;;;;;;5093178;28;20490;-67
2023/04/13 09:21:37;;;;;;;5.43;4.93;;;;;;;;;;5093033;28;20197;-67
2023/04/13 09:24:05;;;;;;;6.45;4.60;;;;;;;;;;5092746;28;20416;-67
2023/04/13 09:26:40;;;;;;;7.13;4.78;;;;;;;;;;5092915;28;20245;-67
2023/04/13 09:29:10;;;;;;;5.20;4.73;;;;;;;;;;5092962;28;20196;-67
2023/04/13 09:31:38;;;;;;;5.88;5.35;;;;;;;;;;5096111;28;20474;-67
2023/04/13 09:34:05;;;;;;;5.38;4.78;;;;;;;;;;5096288;28;20197;-68
2023/04/13 09:36:33;;;;;;;5.78;5.28;;;;;;;;;;5096615;28;20205;-68
2023/04/13 09:39:00;;;;;;;5.27;4.87;;;;;;;;;;5096430;28;20189;-68
2023/04/13 09:41:31;;;;;;;4.88;4.55;;;;;;;;;;5096800;28;20441;-68
2023/04/13 09:43:58;;;;;;;6.10;5.60;;;;;;;;;;5095999;28;20198;-68
2023/04/13 09:46:27;;;;;;;5.90;4.90;;;;;;;;;;5096303;28;20217;-67
2023/04/13 09:49:02;;;;;;;8.60;4.90;;;;;;;;;;5096505;28;20549;-68
2023/04/13 09:51:38;;;;;;;7.80;6.07;;;;;;;;;;5096449;28;20201;-68
2023/04/13 09:54:06;;;;;;;5.70;5.20;;;;;;;;;;5096442;28;20450;-68
2023/04/13 09:56:43;;;;;;;5.33;4.70;;;;;;;;;;5096225;28;20774;-68
2023/04/13 09:59:10;;;;;;;7.57;4.83;;;;;;;;;;5096469;28;20424;-68
2023/04/13 10:01:39;;;;;;;4.90;4.50;;;;;;;;;;5095731;28;20446;-68
2023/04/13 10:04:07;;;;;;;5.97;3.80;;;;;;;;;;5095349;28;20934;-68
2023/04/13 10:06:38;;;;;;;5.00;4.40;;;;;;;;;;5095849;28;20480;-68
2023/04/13 10:09:05;;;;;;;4.33;3.93;;;;;;;;;;5095823;28;20457;-68
2023/04/13 10:11:36;;;;;;;3.87;3.33;;;;;;;;;;5095921;28;20440;-67
2023/04/13 10:14:08;;;;;;;5.83;3.77;;;;;;;;;;5095913;28;20433;-68
2023/04/13 10:16:48;;;;;;;8.70;3.80;;;;;;;;;;5096176;28;20482;-68
2023/04/13 10:19:17;;;;;;;5.13;4.10;;;;;;;;;;5095349;28;20428;-67
2023/04/13 10:21:46;;;;;;;12.00;4.60;;;;;;;;;;5095437;28;20438;-68
2023/04/13 10:24:14;;;;;;;5.30;2.90;;;;;;;;;;5095601;28;20446;-68
2023/04/13 10:26:42;;;;;;;3.90;3.47;;;;;;;;;;5095499;28;20595;-67
2023/04/13 10:29:12;;;;;;;7.80;3.47;;;;;;;;;;5095201;28;20503;-67
2023/04/13 10:31:40;;;;;;;8.30;4.83;;;;;;;;;;5095343;28;20477;-67
2023/04/13 10:34:09;;;;;;;6.00;3.63;;;;;;;;;;5095961;28;20449;-68
2023/04/13 10:36:38;;;;;;;9.90;4.30;;;;;;;;;;5094989;28;20439;-67
2023/04/13 10:39:05;;;;;;;5.67;4.00;;;;;;;;;;5095350;28;20446;-67
2023/04/13 10:41:32;;;;;;;4.17;2.50;;;;;;;;;;5094709;28;20527;-67
2023/04/13 10:44:03;;;;;;;7.90;3.33;;;;;;;;;;5094890;28;20468;-67
2023/04/13 10:46:32;;;;;;;7.10;3.53;;;;;;;;;;5094974;28;20564;-67
2023/04/13 10:49:00;;;;;;;6.37;3.63;;;;;;;;;;5095115;28;20491;-68
2023/04/13 10:51:38;;;;;;;4.13;3.17;;;;;;;;;;5095413;28;20447;-68
2023/04/13 10:54:06;;;;;;;4.30;2.90;;;;;;;;;;5095344;28;20428;-68
2023/04/13 10:56:34;;;;;;;6.80;3.27;;;;;;;;;;5094614;28;20477;-68
2023/04/13 10:59:01;;;;;;;2.77;2.53;;;;;;;;;;5094952;28;20437;-68
2023/04/13 11:01:30;;;;;;;4.80;2.93;;;;;;;;;;5094463;28;20444;-68
2023/04/13 11:03:58;;;;;;;4.87;2.77;;;;;;;;;;5094699;28;20475;-67
2023/04/13 11:06:25;;;;;;;7.53;3.50;;;;;;;;;;5094238;28;20475;-68
2023/04/13 11:09:05;;;;;;;3.23;2.80;;;;;;;;;;5094788;28;20774;-67
2023/04/13 11:11:32;;;;;;;6.83;4.03;;;;;;;;;;5094829;28;20420;-68
2023/04/13 11:13:59;;;;;;;3.50;3.13;;;;;;;;;;5094330;28;20459;-67
2023/04/13 11:16:26;;;;;;;5.73;3.43;;;;;;;;;;5094513;28;20530;-68
2023/04/13 11:19:02;;;;;;;7.40;3.40;;;;;;;;;;5094722;28;20474;-68
2023/04/13 11:21:30;;;;;;;5.50;2.57;;;;;;;;;;5094221;28;20930;-68
2023/04/13 11:24:00;;;;;;;6.00;2.80;;;;;;;;;;5094499;28;20463;-68
2023/04/13 11:26:33;;;;;;;6.13;2.70;;;;;;;;;;5094343;28;20474;-68
2023/04/13 11:29:01;;;;;;;3.70;2.60;;;;;;;;;;5094189;28;20946;-68
2023/04/13 11:31:37;;;;;;;8.03;3.30;;;;;;;;;;5093956;28;20900;-67
2023/04/13 11:34:05;;;;;;;11.03;3.70;;;;;;;;;;5094938;28;20815;-68
2023/04/13 11:36:32;;;;;;;4.10;2.70;;;;;;;;;;5093833;28;20436;-68
2023/04/13 11:39:00;;;;;;;3.90;2.90;;;;;;;;;;5094165;28;20452;-68
2023/04/13 11:41:31;;;;;;;4.67;3.27;;;;;;;;;;5093794;28;20444;-68
2023/04/13 11:44:01;;;;;;;4.50;2.63;;;;;;;;;;5093732;28;20432;-68
2023/04/13 11:46:29;;;;;;;4.93;2.50;;;;;;;;;;5094040;28;20533;-68
2023/04/13 11:48:56;;;;;;;5.47;2.47;;;;;;;;;;5094216;28;20445;-68
2023/04/13 11:51:25;;;;;;;6.10;3.20;;;;;;;;;;5093622;28;20449;-68
2023/04/13 11:53:53;;;;;;;5.93;2.97;;;;;;;;;;5092829;28;20448;-68
2023/04/13 11:56:20;;;;;;;3.83;3.10;;;;;;;;;;5093896;28;20449;-68
2023/04/13 11:58:48;;;;;;;4.63;2.77;;;;;;;;;;5093551;28;20453;-68
2023/04/13 12:01:17;;;;;;;6.47;3.50;;;;;;;;;;5093780;28;20444;-68
2023/04/13 12:03:44;;;;;;;6.83;3.73;;;;;;;;;;5093771;28;20483;-68
2023/04/13 12:06:11;;;;;;;10.10;4.10;;;;;;;;;;5093410;28;20953;-68
2023/04/13 12:08:38;;;;;;;8.43;3.93;;;;;;;;;;5093305;28;20542;-68
2023/04/13 12:11:06;;;;;;;6.70;4.13;;;;;;;;;;5093298;28;20925;-68
2023/04/13 12:13:39;;;;;;;9.67;4.23;;;;;;;;;;5093420;28;20428;-68
2023/04/13 12:16:07;;;;;;;5.13;3.50;;;;;;;;;;5093318;28;20436;-68
2023/04/13 12:18:40;;;;;;;6.00;3.40;;;;;;;;;;5093340;28;20445;-68
2023/04/13 12:21:07;;;;;;;5.00;3.60;;;;;;;;;;5093913;28;20861;-68
2023/04/13 12:23:35;;;;;;;6.47;2.90;;;;;;;;;;5093610;28;20806;-68
2023/04/13 12:26:04;;;;;;;6.20;3.50;;;;;;;;;;5093633;28;20445;-68
2023/04/13 12:28:32;;;;;;;5.93;3.23;;;;;;;;;;5093428;28;20570;-68
2023/04/13 12:31:03;;;;;;;5.30;2.87;;;;;;;;;;5093086;28;20441;-69
2023/04/13 12:33:30;;;;;;;9.90;3.80;;;;;;;;;;5093538;28;20444;-68
2023/04/13 12:35:58;;;;;;;8.17;3.33;;;;;;;;;;5093700;28;20441;-69
2023/04/13 12:38:26;;;;;;;3.20;2.90;;;;;;;;;;5093433;28;20451;-68
2023/04/13 12:40:55;;;;;;;10.40;2.53;;;;;;;;;;5093052;28;20503;-68
2023/04/13 12:43:23;;;;;;;5.63;3.43;;;;;;;;;;5093569;28;20442;-68
2023/04/13 12:45:50;;;;;;;5.43;2.90;;;;;;;;;;5093020;28;20448;-68
2023/04/13 12:48:17;;;;;;;6.00;2.60;;;;;;;;;;5093137;28;20507;-69
2023/04/13 12:50:45;;;;;;;12.93;2.87;;;;;;;;;;5085341;28;20867;-68
2023/04/13 12:53:13;;;;;;;6.20;3.10;;;;;;;;;;5072972;28;20444;-78
2023/04/13 12:55:41;;;;;;;8.50;3.00;;;;;;;;;;5072991;28;20482;-70
2023/04/13 12:58:08;;;;;;;5.17;3.10;;;;;;;;;;5072662;28;20482;-69
2023/04/13 13:00:35;;;;;;;7.33;3.30;;;;;;;;;;5073364;28;20448;-68
2023/04/13 13:03:03;;;;;;;4.57;3.13;;;;;;;;;;5072720;28;20481;-69
2023/04/13 13:05:31;;;;;;;4.80;2.90;;;;;;;;;;5074562;28;20820;-69
2023/04/13 13:07:58;;;;;;;4.13;2.83;;;;;;;;;;5076631;28;20500;-69
2023/04/13 13:10:26;;;;;;;5.53;3.00;;;;;;;;;;5076812;28;20537;-69
2023/04/13 13:12:54;;;;;;;5.10;2.80;;;;;;;;;;5076869;28;20442;-69
2023/04/13 13:15:21;;;;;;;6.20;2.60;;;;;;;;;;5076716;28;20542;-69
2023/04/13 13:17:48;;;;;;;5.47;2.90;;;;;;;;;;5089311;28;20457;-68
2023/04/13 13:20:16;;;;;;;6.97;3.20;;;;;;;;;;5096600;28;20448;-68
2023/04/13 13:22:43;;;;;;;3.80;3.10;;;;;;;;;;5096439;28;20445;-69
2023/04/13 13:25:11;;;;;;;9.50;3.47;;;;;;;;;;5096495;28;20959;-69
2023/04/13 13:27:39;;;;;;;5.90;3.17;;;;;;;;;;5096562;28;20509;-69
2023/04/13 13:30:08;;;;;;;7.20;3.10;;;;;;;;;;5097160;28;20437;-69
2023/04/13 13:32:36;;;;;;;6.77;3.03;;;;;;;;;;5096726;28;20483;-69
2023/04/13 13:35:04;;;;;;;4.03;3.30;;;;;;;;;;5096337;28;20535;-68
2023/04/13 13:37:31;;;;;;;6.97;3.23;;;;;;;;;;5096390;28;20507;-68
2023/04/13 13:40:00;;;;;;;6.70;3.10;;;;;;;;;;5096039;28;20438;-68
2023/04/13 13:42:27;;;;;;;5.20;3.33;;;;;;;;;;5096273;28;20448;-69
2023/04/13 13:44:59;;;;;;;6.40;4.53;;;;;;;;;;5096092;28;20927;-69
2023/04/13 13:47:28;;;;;;;8.47;3.03;;;;;;;;;;5081640;28;20561;-69
2023/04/13 13:49:55;;;;;;;11.53;3.70;;;;;;;;;;5076425;28;20457;-69
2023/04/13 13:52:22;;;;;;;4.30;3.67;;;;;;;;;;5075517;28;20450;-68
2023/04/13 13:54:50;;;;;;;7.77;3.47;;;;;;;;;;5075915;28;20449;-68
2023/04/13 13:57:17;;;;;;;9.33;3.93;;;;;;;;;;5076165;28;20457;-68
2023/04/13 13:59:44;;;;;;;7.23;3.33;;;;;;;;;;5076212;28;20449;-68
2023/04/13 14:02:11;;;;;;;4.70;3.00;;;;;;;;;;5075799;28;20446;-68
2023/04/13 14:04:40;;;;;;;5.13;2.77;;;;;;;;;;5075391;28;21039;-68
2023/04/13 14:07:08;;;;;;;5.40;2.80;;;;;;;;;;5075974;28;20439;-70
2023/04/13 14:09:35;;;;;;;3.70;2.80;;;;;;;;;;5075856;28;20802;-68
2023/04/13 14:12:02;;;;;;;7.53;3.00;;;;;;;;;;5075882;28;20446;-68
2023/04/13 14:14:29;;;;;;;6.77;3.80;;;;;;;;;;5075591;28;20453;-68
2023/04/13 14:16:56;;;;;;;5.70;3.40;;;;;;;;;;5080726;28;20449;-68
2023/04/13 14:19:24;;;;;;;6.80;2.97;;;;;;;;;;5095412;28;20541;-68
2023/04/13 14:21:55;;;;;;;8.47;5.37;;;;;;;;;;5095711;28;20453;-68
2023/04/13 14:24:22;;;;;;;4.50;3.90;;;;;;;;;;5095673;28;20897;-68
2023/04/13 14:26:49;;;;;;;5.33;3.97;;;;;;;;;;5095635;28;20451;-69
2023/04/13 14:29:17;;;;;;;5.23;3.50;;;;;;;;;;5095081;28;20979;-68
2023/04/13 14:31:44;;;;;;;5.13;4.23;;;;;;;;;;5095587;28;20442;-68
2023/04/13 14:34:11;;;;;;;8.57;4.50;;;;;;;;;;5095540;28;20460;-68
2023/04/13 14:36:39;;;;;;;9.80;4.10;;;;;;;;;;5095407;28;20438;-68
2023/04/13 14:39:07;;;;;;;5.47;4.00;;;;;;;;;;5095310;28;20446;-68
2023/04/13 14:41:40;;;;;;;8.70;3.60;;;;;;;;;;5094985;28;20434;-68
2023/04/13 14:44:07;;;;;;;7.23;3.57;;;;;;;;;;5095288;28;20446;-68
2023/04/13 14:46:35;;;;;;;6.80;3.90;;;;;;;;;;5095056;28;20434;-68
2023/04/13 14:49:02;;;;;;;7.40;3.77;;;;;;;;;;5094639;28;20477;-68